Time;durP1;ratioP1;P1;durP2;ratioP2;P2;SDS_P1;SDS_P2;PMS_P1;PMS_P2;Temp;Humidity;BMP_temperature;BMP_pressure;BME280_temperature;BME280_humidity;BME280_pressure;Samples;Min_cycle;Max_cycle;Signal;HPM_P1;HPM_P2
2024/04/16 00:01:54;;;;;;;4.30;0.80;;;7.80;99.90;;;;;;5405384;26;20763;-67
2024/04/16 00:04:20;;;;;;;2.33;0.90;;;7.70;99.90;;;;;;5404900;26;20309;-67
2024/04/16 00:06:45;;;;;;;1.40;0.80;;;7.60;99.90;;;;;;5405341;26;20278;-67
2024/04/16 00:09:11;;;;;;;1.50;0.73;;;7.60;99.90;;;;;;5405103;26;20237;-67
2024/04/16 00:11:38;;;;;;;1.87;0.60;;;7.60;99.90;;;;;;5403463;26;20562;-67
2024/04/16 00:14:04;;;;;;;1.20;0.80;;;7.50;99.90;;;;;;5405017;26;20220;-67
2024/04/16 00:16:29;;;;;;;2.53;0.80;;;7.70;99.90;;;;;;5405033;26;20575;-68
2024/04/16 00:18:55;;;;;;;2.97;0.93;;;7.70;99.90;;;;;;5404827;26;20260;-68
2024/04/16 00:21:20;;;;;;;1.37;0.60;;;7.80;99.90;;;;;;5404605;26;20265;-68
2024/04/16 00:23:46;;;;;;;0.90;0.80;;;8.00;99.90;;;;;;5404928;26;20226;-66
2024/04/16 00:26:12;;;;;;;1.20;0.70;;;8.00;99.90;;;;;;5404682;26;20303;-67
2024/04/16 00:28:37;;;;;;;1.33;0.80;;;8.10;99.90;;;;;;5404964;26;20249;-66
2024/04/16 00:31:03;;;;;;;1.73;0.70;;;8.20;99.90;;;;;;5404894;26;20230;-67
2024/04/16 00:33:28;;;;;;;1.93;1.17;;;8.10;99.90;;;;;;5405189;26;20395;-67
2024/04/16 00:35:54;;;;;;;1.50;0.80;;;8.00;99.90;;;;;;5404825;26;20234;-67
2024/04/16 00:38:20;;;;;;;2.70;0.80;;;8.10;99.90;;;;;;5404555;26;20309;-67
2024/04/16 00:40:45;;;;;;;3.67;0.90;;;8.00;99.90;;;;;;5404614;26;20227;-66
2024/04/16 00:43:21;;;;;;;1.10;0.90;;;8.00;99.90;;;;;;5404567;26;21524;-68
2024/04/16 00:45:54;;;;;;;2.90;0.73;;;7.90;99.90;;;;;;5402938;26;20724;-67
2024/04/16 00:48:24;;;;;;;1.70;0.80;;;7.70;99.90;;;;;;5404884;26;20498;-67
2024/04/16 00:50:50;;;;;;;2.80;1.20;;;7.70;99.90;;;;;;5404526;26;20454;-68
2024/04/16 00:53:17;;;;;;;5.73;1.50;;;7.90;99.90;;;;;;5404303;26;21059;-66
2024/04/16 00:55:44;;;;;;;1.80;0.77;;;8.00;99.90;;;;;;5404212;26;20461;-67
2024/04/16 00:58:12;;;;;;;1.30;0.70;;;8.00;99.90;;;;;;5404378;26;20467;-67
2024/04/16 01:00:38;;;;;;;1.60;0.80;;;8.00;99.90;;;;;;5404237;26;20494;-66
2024/04/16 01:03:03;;;;;;;2.20;1.07;;;7.80;99.90;;;;;;5404127;26;20461;-66
2024/04/16 01:05:29;;;;;;;1.60;0.80;;;7.80;99.90;;;;;;5404202;26;20855;-67
2024/04/16 01:07:55;;;;;;;3.30;1.10;;;8.00;99.90;;;;;;5404251;26;20231;-66
2024/04/16 01:10:20;;;;;;;2.00;0.80;;;8.00;99.90;;;;;;5404184;26;20224;-67
2024/04/16 01:12:46;;;;;;;1.33;1.00;;;7.70;99.90;;;;;;5403862;26;20512;-66
2024/04/16 01:15:12;;;;;;;1.47;1.07;;;7.80;99.90;;;;;;5404255;26;20258;-67
2024/04/16 01:17:41;;;;;;;2.17;1.00;;;7.80;99.90;;;;;;5403282;26;20756;-66
2024/04/16 01:20:07;;;;;;;2.63;1.03;;;7.80;99.90;;;;;;5403730;26;20235;-65
2024/04/16 01:22:32;;;;;;;4.63;1.33;;;7.70;99.90;;;;;;5403948;26;20797;-66
2024/04/16 01:24:58;;;;;;;2.13;0.80;;;7.60;99.90;;;;;;5403934;26;20222;-66
2024/04/16 01:27:24;;;;;;;3.23;1.00;;;7.60;99.90;;;;;;5403963;26;20246;-66
2024/04/16 01:29:49;;;;;;;1.10;0.70;;;7.70;99.90;;;;;;5403871;26;20310;-66
2024/04/16 01:32:15;;;;;;;1.43;0.97;;;7.80;99.90;;;;;;5404039;26;21155;-67
2024/04/16 01:34:41;;;;;;;3.60;0.80;;;7.90;99.90;;;;;;5405080;26;20236;-66
2024/04/16 01:37:07;;;;;;;2.77;1.10;;;7.80;99.90;;;;;;5404381;26;20576;-67
2024/04/16 01:39:33;;;;;;;3.13;1.20;;;7.90;99.90;;;;;;5403913;26;20257;-67
2024/04/16 01:41:59;;;;;;;2.63;1.20;;;7.90;99.90;;;;;;5403451;26;20879;-67
2024/04/16 01:44:25;;;;;;;2.70;1.07;;;7.70;99.90;;;;;;5403816;26;20487;-67
2024/04/16 01:46:50;;;;;;;1.90;1.30;;;7.60;99.90;;;;;;5403640;26;20298;-67
2024/04/16 01:49:17;;;;;;;3.77;1.40;;;7.50;99.90;;;;;;5403734;26;20272;-67
2024/04/16 01:51:42;;;;;;;5.07;1.83;;;7.50;99.90;;;;;;5402864;26;20229;-66
2024/04/16 01:54:08;;;;;;;4.93;1.20;;;7.40;99.90;;;;;;5403838;26;20561;-67
2024/04/16 01:56:33;;;;;;;2.30;1.10;;;7.50;99.90;;;;;;5403284;26;20225;-67
2024/04/16 01:58:59;;;;;;;3.77;1.47;;;7.50;99.90;;;;;;5403415;26;20261;-67
2024/04/16 02:01:24;;;;;;;1.77;1.20;;;7.50;99.90;;;;;;5403134;26;20233;-67
2024/04/16 02:03:50;;;;;;;1.43;1.10;;;7.70;99.90;;;;;;5403469;26;20249;-67
2024/04/16 02:06:16;;;;;;;3.43;1.17;;;7.90;99.90;;;;;;5403280;26;20349;-66
2024/04/16 02:08:41;;;;;;;3.67;1.00;;;7.90;99.90;;;;;;5403399;26;20465;-65
2024/04/16 02:11:09;;;;;;;2.50;1.20;;;7.80;99.90;;;;;;5403435;26;20220;-66
2024/04/16 02:13:35;;;;;;;4.90;1.40;;;7.70;99.90;;;;;;5403119;26;20961;-68
2024/04/16 02:16:00;;;;;;;3.60;1.20;;;7.70;99.90;;;;;;5403035;26;20524;-66
2024/04/16 02:18:26;;;;;;;2.27;1.50;;;7.80;99.90;;;;;;5402974;26;20293;-66
2024/04/16 02:20:52;;;;;;;2.27;0.90;;;7.80;99.90;;;;;;5401981;26;20224;-66
2024/04/16 02:23:17;;;;;;;3.30;1.67;;;7.90;99.90;;;;;;5402476;26;20762;-66
2024/04/16 02:25:53;;;;;;;6.00;1.30;;;7.80;99.90;;;;;;5403161;26;20593;-67
2024/04/16 02:28:19;;;;;;;2.03;1.20;;;7.70;99.90;;;;;;5403214;26;20278;-66
2024/04/16 02:30:44;;;;;;;5.03;1.20;;;7.80;99.90;;;;;;5402945;26;20493;-67
2024/04/16 02:33:11;;;;;;;3.00;1.70;;;7.70;99.90;;;;;;5403019;26;20239;-67
2024/04/16 02:35:36;;;;;;;4.17;1.33;;;7.70;99.90;;;;;;5402810;26;20817;-67
2024/04/16 02:38:02;;;;;;;4.10;1.10;;;7.80;99.90;;;;;;5403012;26;20457;-67
2024/04/16 02:40:27;;;;;;;4.13;1.60;;;7.80;99.90;;;;;;5402246;26;20321;-66
2024/04/16 02:42:53;;;;;;;3.40;1.33;;;7.70;99.90;;;;;;5402881;26;20265;-67
2024/04/16 02:45:20;;;;;;;3.67;1.50;;;7.80;99.90;;;;;;5402492;26;20222;-67
2024/04/16 02:47:45;;;;;;;2.40;1.33;;;7.90;99.90;;;;;;5402597;26;20260;-66
2024/04/16 02:50:11;;;;;;;2.90;1.50;;;7.90;99.90;;;;;;5402593;26;20806;-66
2024/04/16 02:52:36;;;;;;;4.67;1.60;;;7.90;99.90;;;;;;5402483;26;20265;-66
2024/04/16 02:55:03;;;;;;;7.13;1.30;;;8.00;99.90;;;;;;5402811;26;20223;-68
2024/04/16 02:57:29;;;;;;;2.20;1.17;;;8.00;99.90;;;;;;5402522;26;20227;-66
2024/04/16 02:59:54;;;;;;;2.43;1.40;;;8.00;99.90;;;;;;5403106;26;20827;-66
2024/04/16 03:02:20;;;;;;;6.43;2.13;;;7.80;99.90;;;;;;5402727;26;20303;-65
2024/04/16 03:04:48;;;;;;;2.87;1.30;;;7.70;99.90;;;;;;5402817;26;20843;-66
2024/04/16 03:07:14;;;;;;;3.23;1.27;;;7.80;99.90;;;;;;5403072;26;20239;-66
2024/04/16 03:09:39;;;;;;;4.23;1.60;;;7.50;99.90;;;;;;5400841;26;20502;-67
2024/04/16 03:12:05;;;;;;;3.73;1.37;;;7.20;99.90;;;;;;5402876;26;20271;-67
2024/04/16 03:14:31;;;;;;;5.77;1.10;;;7.00;99.90;;;;;;5402542;26;20617;-67
2024/04/16 03:16:56;;;;;;;1.77;1.00;;;6.90;99.90;;;;;;5402739;26;20450;-66
2024/04/16 03:19:22;;;;;;;3.77;1.00;;;7.00;99.90;;;;;;5402223;26;20229;-67
2024/04/16 03:21:47;;;;;;;5.43;1.57;;;7.00;99.90;;;;;;5402219;26;20684;-67
2024/04/16 03:24:13;;;;;;;3.23;1.23;;;7.00;99.90;;;;;;5401516;26;20259;-67
2024/04/16 03:26:39;;;;;;;4.90;1.40;;;6.90;99.90;;;;;;5401619;26;20473;-66
2024/04/16 03:29:04;;;;;;;2.73;1.50;;;6.60;99.90;;;;;;5400188;26;20225;-67
2024/04/16 03:31:30;;;;;;;4.20;1.43;;;6.60;99.90;;;;;;5402090;26;20279;-67
2024/04/16 03:33:55;;;;;;;2.57;1.27;;;6.70;99.90;;;;;;5405109;26;20265;-67
2024/04/16 03:36:21;;;;;;;2.37;1.40;;;6.80;99.90;;;;;;5405527;26;20316;-67
2024/04/16 03:38:46;;;;;;;2.20;1.00;;;7.00;99.90;;;;;;5405250;26;20233;-67
2024/04/16 03:41:12;;;;;;;2.60;1.40;;;7.10;99.90;;;;;;5405433;26;20242;-66
2024/04/16 03:43:38;;;;;;;4.77;1.70;;;7.10;99.90;;;;;;5403191;26;20603;-67
2024/04/16 03:46:04;;;;;;;2.50;1.37;;;7.10;99.90;;;;;;5405193;26;20256;-67
2024/04/16 03:48:29;;;;;;;1.90;1.03;;;7.00;99.90;;;;;;5405232;26;20265;-67
2024/04/16 03:50:55;;;;;;;2.13;1.00;;;7.00;99.90;;;;;;5405315;26;20436;-66
2024/04/16 03:53:21;;;;;;;3.07;1.60;;;7.00;99.90;;;;;;5405537;26;20621;-66
2024/04/16 03:55:46;;;;;;;2.43;1.20;;;6.80;99.90;;;;;;5405318;26;20366;-65
2024/04/16 03:58:13;;;;;;;3.37;1.40;;;6.90;99.90;;;;;;5405196;26;20265;-66
2024/04/16 04:03:23;;;;;;;2.77;1.37;;;7.10;99.90;;;;;;5405427;26;20511;-67
2024/04/16 04:05:49;;;;;;;2.13;1.33;;;7.10;99.90;;;;;;5405400;26;20474;-68
2024/04/16 04:08:15;;;;;;;3.00;1.20;;;7.20;99.90;;;;;;5405415;26;20262;-66
2024/04/16 04:10:41;;;;;;;4.00;1.60;;;7.30;99.90;;;;;;5405222;26;20269;-67
2024/04/16 04:13:07;;;;;;;3.53;1.40;;;7.20;99.90;;;;;;5404952;26;20893;-66
2024/04/16 04:15:33;;;;;;;3.57;1.77;;;7.30;99.90;;;;;;5405038;26;20444;-66
2024/04/16 04:17:58;;;;;;;4.60;1.77;;;7.40;99.90;;;;;;5404955;26;20338;-67
2024/04/16 04:20:24;;;;;;;4.60;1.87;;;7.40;99.90;;;;;;5404990;26;20267;-66
2024/04/16 04:22:49;;;;;;;4.77;1.77;;;7.20;99.90;;;;;;5404531;26;20226;-66
2024/04/16 04:25:15;;;;;;;5.13;1.60;;;7.40;99.90;;;;;;5405032;26;20264;-67
2024/04/16 04:27:42;;;;;;;3.83;1.67;;;7.60;99.90;;;;;;5402676;26;20239;-66
2024/04/16 04:30:11;;;;;;;3.73;2.00;;;7.70;99.90;;;;;;5404387;26;20217;-65
2024/04/16 04:32:36;;;;;;;3.13;1.77;;;7.70;99.90;;;;;;5404923;26;20459;-66
2024/04/16 04:35:03;;;;;;;4.43;1.67;;;7.70;99.90;;;;;;5404811;26;20599;-67
2024/04/16 04:37:28;;;;;;;4.90;1.47;;;7.60;99.90;;;;;;5404926;26;20549;-66
2024/04/16 04:39:54;;;;;;;5.13;1.30;;;7.60;99.90;;;;;;5405546;26;21318;-65
2024/04/16 04:42:20;;;;;;;2.80;1.20;;;7.60;99.90;;;;;;5403964;26;20447;-65
2024/04/16 04:44:46;;;;;;;3.23;1.50;;;7.60;99.90;;;;;;5404197;26;20264;-66
2024/04/16 04:47:12;;;;;;;4.30;1.67;;;7.50;99.90;;;;;;5404217;26;20235;-65
2024/04/16 04:49:38;;;;;;;3.43;1.50;;;7.50;99.90;;;;;;5404800;26;20325;-66
2024/04/16 04:52:04;;;;;;;1.87;1.23;;;7.60;99.90;;;;;;5404381;26;20451;-66
2024/04/16 04:54:30;;;;;;;4.50;1.30;;;7.50;99.90;;;;;;5404829;26;20767;-67
2024/04/16 04:56:55;;;;;;;2.43;1.30;;;7.60;99.90;;;;;;5404267;26;20827;-66
2024/04/16 04:59:21;;;;;;;3.40;1.77;;;7.60;99.90;;;;;;5403933;26;20268;-66
2024/04/16 05:01:47;;;;;;;4.23;1.90;;;7.60;99.90;;;;;;5403961;26;20953;-66
2024/04/16 05:04:12;;;;;;;3.17;1.53;;;7.70;99.90;;;;;;5403913;26;20267;-66
2024/04/16 05:06:38;;;;;;;4.73;1.40;;;7.70;99.90;;;;;;5404140;26;20229;-66
2024/04/16 05:09:04;;;;;;;2.10;1.43;;;7.80;99.90;;;;;;5403871;26;20331;-65
2024/04/16 05:11:30;;;;;;;2.20;1.40;;;7.90;99.90;;;;;;5404186;26;20349;-66
2024/04/16 05:13:56;;;;;;;6.80;2.03;;;8.00;99.90;;;;;;5403811;26;20522;-66
2024/04/16 05:16:21;;;;;;;3.07;1.83;;;8.10;99.90;;;;;;5404008;26;20586;-67
2024/04/16 05:18:48;;;;;;;2.90;1.87;;;8.20;99.90;;;;;;5403379;26;20238;-67
2024/04/16 05:21:14;;;;;;;2.50;1.50;;;8.30;99.90;;;;;;5404010;26;20499;-66
2024/04/16 05:23:39;;;;;;;4.50;1.63;;;8.30;99.90;;;;;;5404178;26;21119;-67
2024/04/16 05:26:05;;;;;;;3.30;1.30;;;8.30;99.90;;;;;;5404111;26;20787;-66
2024/04/16 05:28:32;;;;;;;3.23;1.43;;;8.40;99.90;;;;;;5404018;26;20220;-66
2024/04/16 05:30:57;;;;;;;8.27;2.10;;;8.40;99.90;;;;;;5403334;26;20230;-66
2024/04/16 05:33:25;;;;;;;4.90;1.90;;;8.40;99.90;;;;;;5404044;26;20988;-67
2024/04/16 05:35:50;;;;;;;8.40;1.90;;;8.40;99.90;;;;;;5402237;26;20300;-67
2024/04/16 05:38:16;;;;;;;3.87;1.53;;;8.30;99.90;;;;;;5401928;26;20450;-67
2024/04/16 05:40:41;;;;;;;5.30;1.90;;;8.20;99.90;;;;;;5403645;26;20282;-67
2024/04/16 05:43:07;;;;;;;4.63;1.73;;;8.30;99.90;;;;;;5403180;26;20313;-66
2024/04/16 05:45:33;;;;;;;5.33;1.73;;;8.40;99.90;;;;;;5403627;26;20213;-67
2024/04/16 05:47:58;;;;;;;3.40;1.67;;;8.20;99.90;;;;;;5403345;26;20214;-67
2024/04/16 05:50:24;;;;;;;5.30;2.07;;;8.20;99.90;;;;;;5402757;26;20224;-67
2024/04/16 05:52:49;;;;;;;2.87;1.50;;;8.00;99.90;;;;;;5403306;26;20222;-66
2024/04/16 05:55:15;;;;;;;4.80;1.80;;;7.70;99.90;;;;;;5403231;26;20238;-66
2024/04/16 05:57:41;;;;;;;2.80;2.00;;;7.60;99.90;;;;;;5401821;26;20285;-66
2024/04/16 06:00:07;;;;;;;3.37;1.33;;;7.80;99.90;;;;;;5403521;26;20219;-66
2024/04/16 06:02:32;;;;;;;5.50;2.00;;;7.80;99.90;;;;;;5403009;26;20654;-67
2024/04/16 06:04:58;;;;;;;5.73;2.00;;;7.80;99.90;;;;;;5402928;26;20436;-66
2024/04/16 06:07:23;;;;;;;4.83;2.50;;;7.80;99.90;;;;;;5403121;26;20279;-67
2024/04/16 06:09:49;;;;;;;5.90;2.00;;;7.90;99.90;;;;;;5403317;26;20219;-67
2024/04/16 06:12:15;;;;;;;4.73;2.00;;;7.90;99.90;;;;;;5402838;26;20233;-67
2024/04/16 06:14:41;;;;;;;5.07;2.10;;;8.40;99.90;;;;;;5402455;26;20211;-67
2024/04/16 06:17:06;;;;;;;6.60;1.80;;;8.70;99.90;;;;;;5402884;26;20922;-68
2024/04/16 06:19:32;;;;;;;5.07;1.80;;;8.90;99.90;;;;;;5402310;26;20302;-66
2024/04/16 06:21:57;;;;;;;4.10;2.10;;;9.00;99.90;;;;;;5402963;26;20565;-67
2024/04/16 06:24:23;;;;;;;7.50;2.43;;;9.10;99.90;;;;;;5402822;26;20231;-68
2024/04/16 06:26:48;;;;;;;6.00;1.90;;;9.10;99.90;;;;;;5403134;26;20282;-67
2024/04/16 06:29:16;;;;;;;3.13;1.80;;;9.20;99.90;;;;;;5402858;26;20229;-66
2024/04/16 06:31:42;;;;;;;3.90;1.70;;;9.20;99.90;;;;;;5402686;26;20216;-67
2024/04/16 06:34:07;;;;;;;5.50;2.20;;;9.30;99.90;;;;;;5402948;26;20814;-68
2024/04/16 06:36:33;;;;;;;5.53;2.17;;;9.20;99.90;;;;;;5402694;26;20248;-66
2024/04/16 06:38:58;;;;;;;5.40;2.23;;;9.10;99.90;;;;;;5403047;26;20227;-67
2024/04/16 06:41:24;;;;;;;3.40;1.90;;;9.30;99.90;;;;;;5402524;26;20217;-66
2024/04/16 06:43:49;;;;;;;5.10;2.00;;;9.30;99.90;;;;;;5403119;26;20222;-67
2024/04/16 06:46:15;;;;;;;5.70;1.80;;;9.20;99.90;;;;;;5401746;26;20261;-66
2024/04/16 06:48:41;;;;;;;4.57;1.67;;;9.20;99.90;;;;;;5402665;26;20297;-67
2024/04/16 06:51:06;;;;;;;9.10;2.73;;;9.10;99.90;;;;;;5400702;26;20845;-67
2024/04/16 06:53:32;;;;;;;3.60;2.03;;;9.00;99.90;;;;;;5402663;26;20238;-67
2024/04/16 06:56:00;;;;;;;6.00;2.30;;;9.10;99.90;;;;;;5402382;26;20224;-67
2024/04/16 06:58:25;;;;;;;9.87;2.10;;;9.10;99.90;;;;;;5402670;26;21264;-67
2024/04/16 07:00:51;;;;;;;3.20;1.53;;;8.90;99.90;;;;;;5402660;26;20438;-67
2024/04/16 07:03:16;;;;;;;5.30;1.90;;;9.00;99.90;;;;;;5402180;26;20326;-66
2024/04/16 07:05:42;;;;;;;5.90;2.00;;;9.10;99.90;;;;;;5402174;26;20339;-67
2024/04/16 07:08:08;;;;;;;4.53;2.13;;;9.00;99.90;;;;;;5405476;26;20294;-66
2024/04/16 07:10:33;;;;;;;4.43;1.40;;;9.00;99.90;;;;;;5410060;26;20263;-67
2024/04/16 07:12:59;;;;;;;4.60;1.70;;;9.00;99.90;;;;;;5409332;26;20222;-67
2024/04/16 07:15:24;;;;;;;5.10;2.10;;;8.90;99.90;;;;;;5409434;26;20673;-66
2024/04/16 07:17:50;;;;;;;8.17;2.70;;;9.00;99.90;;;;;;5408301;26;20715;-66
2024/04/16 07:20:15;;;;;;;4.00;1.60;;;9.20;99.90;;;;;;5408267;26;20611;-67
2024/04/16 07:22:41;;;;;;;4.40;1.70;;;9.10;99.90;;;;;;5408805;26;20232;-67
2024/04/16 07:25:06;;;;;;;7.53;1.90;;;9.30;99.90;;;;;;5409226;26;20228;-67
2024/04/16 07:27:32;;;;;;;5.53;1.60;;;9.20;99.90;;;;;;5409383;26;20236;-67
2024/04/16 07:29:57;;;;;;;4.40;1.30;;;9.30;99.90;;;;;;5409841;26;20304;-67
2024/04/16 07:32:23;;;;;;;4.90;1.70;;;9.20;99.90;;;;;;5409742;26;20247;-66
2024/04/16 07:34:49;;;;;;;3.43;1.30;;;9.20;99.90;;;;;;5410248;26;20633;-67
2024/04/16 07:37:14;;;;;;;9.03;1.90;;;9.40;99.90;;;;;;5409073;26;20230;-67
2024/04/16 07:39:40;;;;;;;5.47;2.10;;;9.40;99.90;;;;;;5409698;26;20240;-67
2024/04/16 07:42:05;;;;;;;4.43;1.90;;;9.40;99.90;;;;;;5409933;26;20224;-67
2024/04/16 07:44:31;;;;;;;4.43;2.00;;;9.40;99.90;;;;;;5409867;26;21249;-66
2024/04/16 07:46:59;;;;;;;2.80;1.43;;;9.30;99.90;;;;;;5410071;26;20345;-67
2024/04/16 07:49:25;;;;;;;4.40;2.40;;;9.50;99.90;;;;;;5408940;26;20222;-67
2024/04/16 07:51:50;;;;;;;7.10;1.60;;;9.90;99.90;;;;;;5409895;26;20498;-67
2024/04/16 07:54:16;;;;;;;4.93;1.53;;;10.20;99.90;;;;;;5408675;26;20292;-67
2024/04/16 07:56:41;;;;;;;2.93;1.90;;;10.40;99.90;;;;;;5407633;26;20245;-67
2024/04/16 07:59:07;;;;;;;6.53;1.93;;;10.60;99.90;;;;;;5409296;26;20270;-67
2024/04/16 08:01:32;;;;;;;2.33;1.20;;;10.70;99.90;;;;;;5409439;26;20227;-67
2024/04/16 08:03:58;;;;;;;6.63;1.63;;;10.70;98.90;;;;;;5409056;26;20342;-67
2024/04/16 08:06:23;;;;;;;3.33;1.40;;;10.20;98.10;;;;;;5409287;26;20793;-66
2024/04/16 08:08:50;;;;;;;2.73;1.30;;;10.00;97.90;;;;;;5409325;26;20691;-67
2024/04/16 08:11:16;;;;;;;4.50;1.70;;;10.00;98.20;;;;;;5408742;26;20216;-66
2024/04/16 08:13:42;;;;;;;3.77;1.40;;;9.80;99.40;;;;;;5409329;26;20510;-67
2024/04/16 08:16:08;;;;;;;3.90;1.77;;;10.10;99.00;;;;;;5408884;26;20232;-67
2024/04/16 08:18:34;;;;;;;3.30;1.70;;;10.30;99.40;;;;;;5408448;26;20318;-67
2024/04/16 08:21:00;;;;;;;5.80;1.60;;;10.50;99.00;;;;;;5404633;26;20452;-66
2024/04/16 08:23:25;;;;;;;4.83;1.80;;;10.50;98.70;;;;;;5403280;26;20582;-66
2024/04/16 08:26:05;;;;;;;3.80;1.77;;;10.50;98.40;;;;;;5404934;26;20229;-67
2024/04/16 08:28:31;;;;;;;7.53;1.53;;;10.70;98.50;;;;;;5405431;26;20614;-67
2024/04/16 08:30:58;;;;;;;5.17;1.47;;;11.00;98.60;;;;;;5405059;26;20619;-67
2024/04/16 08:33:23;;;;;;;2.77;1.37;;;10.80;97.60;;;;;;5405149;26;20468;-68
2024/04/16 08:35:50;;;;;;;3.87;1.33;;;10.60;97.80;;;;;;5404859;26;20552;-67
2024/04/16 08:38:16;;;;;;;7.10;1.93;;;10.40;97.80;;;;;;5405308;26;20481;-67
2024/04/16 08:40:43;;;;;;;3.73;1.70;;;10.40;97.40;;;;;;5404185;26;21837;-68
2024/04/16 08:43:09;;;;;;;5.20;2.13;;;10.30;97.60;;;;;;5404840;26;20974;-67
2024/04/16 08:45:34;;;;;;;3.43;1.37;;;10.30;97.90;;;;;;5404875;26;20573;-68
2024/04/16 08:48:01;;;;;;;2.60;1.33;;;10.50;96.70;;;;;;5404609;26;20219;-67
2024/04/16 08:50:28;;;;;;;2.70;1.20;;;10.50;96.00;;;;;;5404909;26;20449;-67
2024/04/16 08:52:58;;;;;;;4.13;1.30;;;10.70;96.20;;;;;;5404951;26;20493;-69
2024/04/16 08:55:25;;;;;;;3.27;1.83;;;10.90;96.30;;;;;;5405015;26;20503;-68
2024/04/16 08:57:51;;;;;;;1.50;1.30;;;11.10;96.80;;;;;;5404669;26;20564;-67
2024/04/16 09:00:18;;;;;;;3.93;1.10;;;11.00;96.40;;;;;;5405170;26;20804;-68
2024/04/16 09:02:45;;;;;;;2.87;1.67;;;11.10;96.70;;;;;;5404902;26;20237;-68
2024/04/16 09:05:10;;;;;;;5.63;1.80;;;11.30;96.50;;;;;;5404719;26;21038;-65
2024/04/16 09:07:38;;;;;;;3.77;1.20;;;11.30;96.50;;;;;;5404783;26;20454;-67
2024/04/16 09:10:15;;;;;;;3.20;1.93;;;11.30;96.80;;;;;;5404760;26;20217;-67
2024/04/16 09:12:44;;;;;;;3.50;1.47;;;11.10;95.90;;;;;;5404498;26;20979;-66
2024/04/16 09:15:12;;;;;;;3.90;1.53;;;10.90;95.60;;;;;;5404179;26;20506;-66
2024/04/16 09:17:54;;;;;;;3.70;1.23;;;11.10;95.70;;;;;;5404546;26;20516;-67
2024/04/16 09:20:24;;;;;;;2.27;1.10;;;11.30;95.50;;;;;;5404357;26;20438;-66
2024/04/16 09:22:52;;;;;;;4.63;1.37;;;11.40;95.30;;;;;;5404263;26;20628;-66
2024/04/16 09:25:18;;;;;;;1.90;1.30;;;11.60;94.90;;;;;;5404446;26;22139;-66
2024/04/16 09:27:51;;;;;;;2.40;1.20;;;11.80;94.80;;;;;;5403807;26;21015;-67
2024/04/16 09:30:17;;;;;;;3.07;1.30;;;12.00;94.50;;;;;;5404328;26;21043;-67
2024/04/16 09:32:55;;;;;;;5.47;1.27;;;12.10;94.80;;;;;;5404214;26;20588;-67
2024/04/16 09:35:27;;;;;;;4.90;1.30;;;12.10;94.10;;;;;;5404056;26;20515;-67
2024/04/16 09:38:07;;;;;;;3.93;1.20;;;11.90;93.90;;;;;;5404301;26;20439;-68
2024/04/16 09:40:33;;;;;;;6.33;2.10;;;12.10;94.20;;;;;;5404240;26;20577;-66
2024/04/16 09:43:00;;;;;;;4.77;1.60;;;12.40;94.30;;;;;;5403773;26;20459;-66
2024/04/16 09:45:27;;;;;;;4.90;1.50;;;12.00;93.80;;;;;;5404087;26;20494;-67
2024/04/16 09:47:53;;;;;;;5.10;1.70;;;11.90;94.40;;;;;;5404154;26;20990;-67
2024/04/16 09:50:23;;;;;;;3.30;1.10;;;11.90;94.40;;;;;;5403596;26;20552;-65
2024/04/16 09:52:51;;;;;;;7.53;1.33;;;12.10;95.70;;;;;;5403394;26;20459;-66
2024/04/16 09:55:21;;;;;;;3.37;1.30;;;12.10;95.00;;;;;;5403989;26;20488;-67
2024/04/16 09:57:51;;;;;;;8.03;2.90;;;11.70;95.20;;;;;;5404017;26;20458;-69
2024/04/16 10:00:17;;;;;;;1.50;1.00;;;11.70;96.10;;;;;;5404057;26;20551;-67
2024/04/16 10:02:44;;;;;;;3.90;1.10;;;11.60;96.50;;;;;;5403779;26;20591;-66
2024/04/16 10:05:11;;;;;;;6.17;1.87;;;11.70;96.30;;;;;;5403406;26;20440;-66
2024/04/16 10:07:38;;;;;;;2.57;1.10;;;12.00;96.80;;;;;;5403756;26;20454;-67
2024/04/16 10:10:05;;;;;;;2.20;1.23;;;12.00;95.90;;;;;;5403681;26;21055;-68
2024/04/16 10:12:32;;;;;;;3.10;1.07;;;12.10;96.60;;;;;;5403406;26;20459;-66
2024/04/16 10:14:58;;;;;;;3.53;1.10;;;12.00;95.50;;;;;;5403753;26;20438;-67
2024/04/16 10:17:25;;;;;;;1.80;1.00;;;12.00;96.00;;;;;;5403626;26;20549;-66
2024/04/16 10:19:51;;;;;;;3.03;0.93;;;11.70;95.60;;;;;;5403274;26;20468;-66
2024/04/16 10:22:17;;;;;;;3.43;1.27;;;11.60;95.80;;;;;;5403841;26;20469;-68
2024/04/16 10:24:54;;;;;;;3.00;1.33;;;11.30;96.30;;;;;;5401406;26;20446;-66
2024/04/16 10:27:24;;;;;;;3.80;1.30;;;11.20;96.40;;;;;;5403889;26;20274;-66
2024/04/16 10:30:06;;;;;;;2.00;1.30;;;11.40;97.30;;;;;;5403503;26;20446;-66
2024/04/16 10:32:32;;;;;;;3.60;0.93;;;11.50;96.80;;;;;;5403149;26;20454;-67
2024/04/16 10:35:01;;;;;;;3.17;1.30;;;11.50;96.60;;;;;;5403598;26;20481;-67
2024/04/16 10:37:32;;;;;;;2.70;1.33;;;11.60;96.70;;;;;;5403210;26;20241;-67
2024/04/16 10:39:58;;;;;;;2.70;1.23;;;11.50;97.20;;;;;;5403546;26;21021;-67
2024/04/16 10:42:28;;;;;;;2.63;0.87;;;11.40;97.50;;;;;;5402155;26;20456;-67
2024/04/16 10:44:56;;;;;;;2.40;1.20;;;11.20;97.90;;;;;;5402935;26;20213;-67
2024/04/16 10:47:24;;;;;;;2.93;1.33;;;11.40;99.00;;;;;;5403031;26;20881;-68
2024/04/16 10:49:50;;;;;;;3.47;1.10;;;11.70;98.20;;;;;;5403736;26;20580;-67
2024/04/16 10:52:19;;;;;;;1.90;0.80;;;11.70;97.60;;;;;;5403413;26;20616;-67
2024/04/16 10:54:50;;;;;;;1.73;0.90;;;11.80;97.20;;;;;;5403235;26;20284;-68
2024/04/16 10:57:18;;;;;;;2.03;0.80;;;12.20;97.30;;;;;;5403096;26;21000;-68
2024/04/16 10:59:45;;;;;;;2.97;0.80;;;12.50;97.20;;;;;;5402888;26;21188;-68
2024/04/16 11:02:10;;;;;;;1.87;1.00;;;12.90;96.10;;;;;;5403135;26;20434;-68
2024/04/16 11:04:37;;;;;;;2.30;1.00;;;12.50;96.30;;;;;;5403050;26;20855;-68
2024/04/16 11:07:04;;;;;;;2.70;1.10;;;12.60;97.20;;;;;;5402345;26;20225;-67
2024/04/16 11:09:29;;;;;;;1.97;0.90;;;13.40;96.40;;;;;;5403058;26;20445;-68
2024/04/16 11:11:55;;;;;;;3.00;1.00;;;13.70;95.20;;;;;;5402814;26;20518;-67
2024/04/16 11:14:21;;;;;;;1.10;0.80;;;13.50;94.80;;;;;;5402584;26;20286;-68
2024/04/16 11:16:48;;;;;;;4.60;0.90;;;13.00;94.90;;;;;;5401845;26;20618;-68
2024/04/16 11:19:13;;;;;;;1.87;0.90;;;12.40;95.90;;;;;;5400570;26;20945;-68
2024/04/16 11:21:40;;;;;;;1.73;1.30;;;12.20;96.90;;;;;;5402527;26;20434;-69
2024/04/16 11:24:06;;;;;;;1.90;0.90;;;12.50;97.60;;;;;;5401718;26;20226;-67
2024/04/16 11:26:32;;;;;;;3.47;2.03;;;12.50;97.90;;;;;;5402313;26;20509;-68
2024/04/16 11:28:57;;;;;;;2.20;0.70;;;12.60;98.20;;;;;;5402513;26;20450;-67
2024/04/16 11:31:24;;;;;;;2.87;1.30;;;12.30;97.90;;;;;;5402611;26;20213;-68
2024/04/16 11:33:49;;;;;;;4.10;0.70;;;12.50;99.10;;;;;;5402324;26;20277;-68
2024/04/16 11:36:16;;;;;;;1.30;0.77;;;13.50;97.00;;;;;;5402147;26;20994;-66
2024/04/16 11:38:42;;;;;;;2.00;0.80;;;13.40;96.10;;;;;;5402465;26;20224;-68
2024/04/16 11:41:09;;;;;;;1.03;0.80;;;13.50;96.20;;;;;;5402124;26;20533;-68
2024/04/16 11:43:35;;;;;;;2.20;0.87;;;13.50;95.90;;;;;;5401559;26;20683;-68
2024/04/16 11:46:03;;;;;;;2.23;0.90;;;14.20;95.60;;;;;;5401954;26;20604;-67
2024/04/16 11:48:30;;;;;;;2.33;0.80;;;14.20;93.70;;;;;;5402043;26;20439;-67
2024/04/16 11:50:56;;;;;;;1.20;0.90;;;14.70;92.50;;;;;;5400492;26;20557;-67
2024/04/16 11:53:21;;;;;;;1.33;0.70;;;14.40;92.30;;;;;;5401857;26;20443;-67
2024/04/16 11:55:47;;;;;;;1.67;0.90;;;14.00;93.20;;;;;;5404351;26;20750;-66
2024/04/16 11:58:12;;;;;;;1.80;0.80;;;13.70;93.30;;;;;;5405453;26;20225;-69
2024/04/16 12:00:38;;;;;;;2.23;0.80;;;13.30;93.50;;;;;;5403553;26;20406;-69
2024/04/16 12:03:05;;;;;;;2.90;1.00;;;12.90;95.60;;;;;;5405733;26;20269;-67
2024/04/16 12:05:31;;;;;;;1.30;0.90;;;12.40;97.40;;;;;;5405028;26;20494;-66
2024/04/16 12:07:56;;;;;;;1.73;0.60;;;12.20;97.90;;;;;;5405498;26;20450;-66
2024/04/16 12:10:23;;;;;;;0.80;0.50;;;12.60;98.60;;;;;;5405217;26;20558;-68
2024/04/16 12:12:49;;;;;;;1.60;0.80;;;13.50;96.60;;;;;;5405362;26;20234;-66
2024/04/16 12:15:16;;;;;;;1.70;0.63;;;13.50;96.00;;;;;;5405025;26;20568;-67
2024/04/16 12:17:42;;;;;;;1.70;1.10;;;13.70;95.80;;;;;;5405142;26;20456;-67
2024/04/16 12:20:08;;;;;;;1.53;1.10;;;13.10;96.10;;;;;;5405389;26;21088;-67
2024/04/16 12:22:34;;;;;;;2.37;1.17;;;13.10;96.20;;;;;;5405104;26;20702;-66
2024/04/16 12:24:59;;;;;;;1.70;1.00;;;13.00;95.90;;;;;;5405128;26;20574;-67
2024/04/16 12:27:26;;;;;;;1.17;0.70;;;12.80;95.90;;;;;;5404974;26;20859;-67
2024/04/16 12:29:52;;;;;;;2.43;0.80;;;12.90;95.90;;;;;;5405012;26;21759;-67
2024/04/16 12:32:17;;;;;;;1.40;0.80;;;13.00;95.90;;;;;;5405145;26;20455;-68
2024/04/16 12:34:43;;;;;;;4.43;0.93;;;12.60;95.30;;;;;;5404743;26;20764;-66
2024/04/16 12:37:08;;;;;;;2.30;0.90;;;12.70;95.90;;;;;;5405113;26;20655;-68
2024/04/16 12:39:34;;;;;;;1.33;0.77;;;12.80;95.30;;;;;;5404841;26;20213;-67
2024/04/16 12:42:00;;;;;;;2.40;0.80;;;13.80;94.90;;;;;;5405133;26;20273;-68
2024/04/16 12:44:26;;;;;;;2.20;1.00;;;15.60;92.00;;;;;;5404833;26;20262;-68
2024/04/16 12:46:52;;;;;;;1.90;0.87;;;16.40;90.70;;;;;;5405000;26;20458;-67
2024/04/16 12:49:24;;;;;;;1.07;0.73;;;16.20;89.60;;;;;;5404782;26;20438;-67
2024/04/16 12:51:53;;;;;;;1.10;0.73;;;15.20;90.50;;;;;;5405045;26;20246;-67